Time;durP1;ratioP1;P1;durP2;ratioP2;P2;SDS_P1;SDS_P2;PMS_P1;PMS_P2;Temp;Humidity;BMP_temperature;BMP_pressure;BME280_temperature;BME280_humidity;BME280_pressure;Samples;Min_cycle;Max_cycle;Signal;HPM_P1;HPM_P2
2021/01/23 00:01:22;;;;;;;0.60;0.60;;;0.50;99.90;;;;;;5029893;28;20205;-82
2021/01/23 00:03:50;;;;;;;0.60;0.60;;;0.50;99.90;;;;;;5041164;28;20637;-84
2021/01/23 00:06:16;;;;;;;0.60;0.60;;;0.50;99.90;;;;;;5054794;28;20221;-84
2021/01/23 00:08:42;;;;;;;0.50;0.50;;;0.50;99.90;;;;;;5055904;28;20667;-84
2021/01/23 00:11:09;;;;;;;0.55;0.55;;;0.50;99.90;;;;;;5047274;28;20219;-85
2021/01/23 00:13:36;;;;;;;0.60;0.60;;;0.50;99.90;;;;;;5043442;28;20209;-84
2021/01/23 00:16:02;;;;;;;0.60;0.60;;;0.50;99.90;;;;;;5046979;28;20248;-84
2021/01/23 00:18:28;;;;;;;0.50;0.50;;;0.40;99.90;;;;;;5048957;28;20228;-85
2021/01/23 00:20:54;;;;;;;0.60;0.60;;;0.50;99.90;;;;;;5056215;28;20192;-85
2021/01/23 00:23:20;;;;;;;0.60;0.60;;;0.50;99.90;;;;;;5056761;28;20221;-84
2021/01/23 00:25:47;;;;;;;0.60;0.60;;;0.50;99.90;;;;;;5048270;28;20201;-84
2021/01/23 00:28:13;;;;;;;0.52;0.52;;;0.50;99.90;;;;;;5032599;28;20213;-84
2021/01/23 00:30:40;;;;;;;0.60;0.60;;;0.50;99.90;;;;;;5035279;28;20212;-84
2021/01/23 00:33:06;;;;;;;0.60;0.60;;;0.60;99.90;;;;;;5034993;28;20521;-84
2021/01/23 00:35:32;;;;;;;0.60;0.60;;;0.60;99.90;;;;;;5031644;28;20228;-84
2021/01/23 00:37:58;;;;;;;0.57;0.57;;;0.60;99.90;;;;;;5048901;28;20238;-86
2021/01/23 00:40:25;;;;;;;0.60;0.60;;;0.60;99.90;;;;;;5073422;28;20230;-83
2021/01/23 00:42:51;;;;;;;0.60;0.60;;;0.50;99.90;;;;;;5071214;28;20203;-85
2021/01/23 00:45:18;;;;;;;0.50;0.50;;;0.50;99.90;;;;;;5072465;28;20687;-86
2021/01/23 00:47:44;;;;;;;0.50;0.50;;;0.50;99.90;;;;;;5070862;28;20219;-85
2021/01/23 00:50:11;;;;;;;0.50;0.50;;;0.50;99.90;;;;;;5071400;28;20207;-84
2021/01/23 00:52:37;;;;;;;0.50;0.50;;;0.50;99.90;;;;;;5069878;28;20279;-83
2021/01/23 00:55:03;;;;;;;0.60;0.60;;;0.50;99.90;;;;;;5069737;28;20211;-84
2021/01/23 00:57:30;;;;;;;0.60;0.60;;;0.40;99.90;;;;;;5070551;28;20211;-83
2021/01/23 00:59:56;;;;;;;0.50;0.50;;;0.40;99.90;;;;;;5073704;28;20269;-84
2021/01/23 01:02:23;;;;;;;0.55;0.55;;;0.40;99.90;;;;;;5076447;28;20208;-84
2021/01/23 01:04:49;;;;;;;0.50;0.50;;;0.40;99.90;;;;;;5076970;28;20203;-84
2021/01/23 01:07:15;;;;;;;0.60;0.60;;;0.50;99.90;;;;;;5078101;28;20235;-84
2021/01/23 01:09:41;;;;;;;0.50;0.50;;;0.40;99.90;;;;;;5078854;28;20207;-84
2021/01/23 01:12:24;;;;;;;0.60;0.60;;;0.50;99.90;;;;;;5077900;28;20204;-84
2021/01/23 01:14:50;;;;;;;0.60;0.60;;;0.40;99.90;;;;;;5077577;28;20200;-84
2021/01/23 01:17:16;;;;;;;0.60;0.60;;;0.40;99.90;;;;;;5077248;28;20222;-84
2021/01/23 01:19:43;;;;;;;0.60;0.60;;;0.50;99.90;;;;;;5077380;28;20218;-84
2021/01/23 01:22:09;;;;;;;0.60;0.60;;;0.50;99.90;;;;;;5078136;28;20203;-84
2021/01/23 01:24:35;;;;;;;0.50;0.50;;;0.50;99.90;;;;;;5077529;28;20709;-84
2021/01/23 01:27:09;;;;;;;0.60;0.60;;;0.50;99.90;;;;;;5078745;28;20228;-84
2021/01/23 01:29:35;;;;;;;0.50;0.50;;;0.50;99.90;;;;;;5078770;28;20215;-84
2021/01/23 01:32:01;;;;;;;0.50;0.50;;;0.40;99.90;;;;;;5077531;28;20236;-84
2021/01/23 01:34:27;;;;;;;0.60;0.60;;;0.40;99.90;;;;;;5075717;28;20210;-85
2021/01/23 01:36:54;;;;;;;0.60;0.60;;;0.40;99.90;;;;;;5082428;28;20208;-85
2021/01/23 01:39:20;;;;;;;0.57;0.57;;;0.40;99.90;;;;;;5081793;28;20231;-85
2021/01/23 01:41:46;;;;;;;0.60;0.60;;;0.40;99.90;;;;;;5081805;28;20200;-85
2021/01/23 01:44:12;;;;;;;0.55;0.55;;;0.40;99.90;;;;;;5081180;28;20213;-85
2021/01/23 01:46:40;;;;;;;0.60;0.60;;;0.40;99.90;;;;;;5080776;28;20226;-85
2021/01/23 01:49:06;;;;;;;0.60;0.60;;;0.40;99.90;;;;;;5081400;28;20674;-85
2021/01/23 01:51:33;;;;;;;0.50;0.50;;;0.40;99.90;;;;;;5080750;28;20216;-85
2021/01/23 01:54:00;;;;;;;0.60;0.60;;;0.40;99.90;;;;;;5079548;28;20204;-84
2021/01/23 01:56:26;;;;;;;0.60;0.60;;;0.50;99.90;;;;;;5079882;28;20199;-85
2021/01/23 01:58:53;;;;;;;0.60;0.60;;;0.40;99.90;;;;;;5078445;28;20211;-85
2021/01/23 02:01:19;;;;;;;0.50;0.50;;;0.50;99.90;;;;;;5077576;28;20202;-84
2021/01/23 02:04:03;;;;;;;0.55;0.55;;;0.40;99.90;;;;;;5078026;28;20731;-85
2021/01/23 02:06:45;;;;;;;0.50;0.50;;;0.50;99.90;;;;;;5076201;28;20223;-84
2021/01/23 02:09:26;;;;;;;0.60;0.60;;;0.50;99.90;;;;;;5072288;28;20282;-85
2021/01/23 02:12:00;;;;;;;0.60;0.60;;;0.40;99.90;;;;;;5073496;28;20207;-85
2021/01/23 02:14:36;;;;;;;0.60;0.60;;;0.40;99.90;;;;;;5074327;28;20226;-85
2021/01/23 02:17:08;;;;;;;0.50;0.50;;;0.40;99.90;;;;;;5074507;28;20743;-84
2021/01/23 02:19:59;;;;;;;0.60;0.60;;;0.40;99.90;;;;;;5074737;28;20192;-84
2021/01/23 02:22:43;;;;;;;0.50;0.50;;;0.40;99.90;;;;;;5074583;28;20203;-84
2021/01/23 02:25:11;;;;;;;0.60;0.60;;;0.40;99.90;;;;;;5071047;28;20211;-84
2021/01/23 02:27:48;;;;;;;0.60;0.60;;;0.40;99.90;;;;;;5072068;28;20223;-83
2021/01/23 02:30:18;;;;;;;0.60;0.60;;;0.40;99.90;;;;;;5069779;28;20256;-83
2021/01/23 02:32:49;;;;;;;0.55;0.55;;;0.40;99.90;;;;;;5069723;28;20235;-83
2021/01/23 02:35:17;;;;;;;0.57;0.57;;;0.30;99.90;;;;;;5069685;28;20199;-83
2021/01/23 02:37:45;;;;;;;0.55;0.55;;;0.30;99.90;;;;;;5070634;28;20231;-84
2021/01/23 02:40:12;;;;;;;0.50;0.50;;;0.30;99.90;;;;;;5079749;28;20199;-84
2021/01/23 02:42:38;;;;;;;0.60;0.60;;;0.30;99.90;;;;;;5082030;28;20563;-84
2021/01/23 02:45:07;;;;;;;0.60;0.60;;;0.30;99.90;;;;;;5076787;28;20211;-85
2021/01/23 02:47:33;;;;;;;0.60;0.60;;;0.40;99.90;;;;;;5068358;28;20231;-85
2021/01/23 02:50:00;;;;;;;0.57;0.57;;;0.40;99.90;;;;;;5073562;28;20246;-84
2021/01/23 02:52:46;;;;;;;0.50;0.50;;;0.40;99.90;;;;;;5076459;28;20200;-84
2021/01/23 02:55:16;;;;;;;0.60;0.60;;;0.40;99.90;;;;;;5077155;28;20211;-84
2021/01/23 02:57:44;;;;;;;0.50;0.50;;;0.50;99.90;;;;;;5076945;28;20219;-84
2021/01/23 03:00:11;;;;;;;0.60;0.60;;;0.50;99.90;;;;;;5077176;28;20211;-84
2021/01/23 03:02:43;;;;;;;0.60;0.60;;;0.50;99.90;;;;;;5076474;28;20203;-84
2021/01/23 03:05:12;;;;;;;0.60;0.60;;;0.40;99.90;;;;;;5076427;28;20230;-84
2021/01/23 03:07:38;;;;;;;0.50;0.50;;;0.40;99.90;;;;;;5077035;28;20238;-84
2021/01/23 03:10:06;;;;;;;0.50;0.50;;;0.40;99.90;;;;;;5076493;28;20246;-84
2021/01/23 03:12:32;;;;;;;0.60;0.60;;;0.40;99.90;;;;;;5075984;28;20218;-84
2021/01/23 03:14:59;;;;;;;0.60;0.60;;;0.30;99.90;;;;;;5076110;28;20206;-84
2021/01/23 03:17:25;;;;;;;0.60;0.60;;;0.40;99.90;;;;;;5077876;28;20195;-84
2021/01/23 03:19:51;;;;;;;0.60;0.60;;;0.40;99.90;;;;;;5079943;28;20208;-84
2021/01/23 03:22:19;;;;;;;0.60;0.60;;;0.40;99.90;;;;;;5080425;28;20275;-84
2021/01/23 03:24:45;;;;;;;0.57;0.57;;;0.40;99.90;;;;;;5079117;28;20220;-84
2021/01/23 03:27:11;;;;;;;0.60;0.60;;;0.40;99.90;;;;;;5076525;28;20698;-84
2021/01/23 03:29:37;;;;;;;0.60;0.60;;;0.30;99.90;;;;;;5075270;28;20624;-84
2021/01/23 03:32:04;;;;;;;0.57;0.57;;;0.30;99.90;;;;;;5075366;28;20253;-84
2021/01/23 03:34:30;;;;;;;0.50;0.50;;;0.30;99.90;;;;;;5075288;28;20208;-84
2021/01/23 03:36:56;;;;;;;0.60;0.60;;;0.30;99.90;;;;;;5076605;28;20226;-84
2021/01/23 03:39:23;;;;;;;0.60;0.60;;;0.20;99.90;;;;;;5075029;28;20239;-83
2021/01/23 03:41:49;;;;;;;0.60;0.60;;;0.20;99.90;;;;;;5071082;28;20257;-83
2021/01/23 03:44:15;;;;;;;0.60;0.60;;;0.20;99.90;;;;;;5071272;28;20211;-83
2021/01/23 03:46:41;;;;;;;0.60;0.60;;;0.20;99.90;;;;;;5072823;28;20235;-84
2021/01/23 03:49:07;;;;;;;0.60;0.60;;;0.20;99.90;;;;;;5078504;28;20211;-84
2021/01/23 03:51:34;;;;;;;0.60;0.60;;;0.30;99.90;;;;;;5079769;28;20211;-84
2021/01/23 03:54:00;;;;;;;0.50;0.50;;;0.30;99.90;;;;;;5080220;28;20200;-84
2021/01/23 03:56:27;;;;;;;0.50;0.50;;;0.30;99.90;;;;;;5080065;28;20199;-84
2021/01/23 03:58:53;;;;;;;0.60;0.60;;;0.30;99.90;;;;;;5080651;28;20210;-84
2021/01/23 04:01:19;;;;;;;0.60;0.60;;;0.30;99.90;;;;;;5081145;28;20203;-84
2021/01/23 04:03:45;;;;;;;0.60;0.60;;;0.30;99.90;;;;;;5080783;28;20227;-84
2021/01/23 04:06:11;;;;;;;0.50;0.50;;;0.20;99.90;;;;;;5080496;28;20211;-84
2021/01/23 04:08:37;;;;;;;0.60;0.60;;;0.20;99.90;;;;;;5081268;28;20203;-84
2021/01/23 04:11:03;;;;;;;0.60;0.60;;;0.20;99.90;;;;;;5080926;28;20208;-84
2021/01/23 04:13:30;;;;;;;0.60;0.60;;;0.20;99.90;;;;;;5080684;28;20633;-84
2021/01/23 04:15:56;;;;;;;0.60;0.60;;;0.30;99.90;;;;;;5080688;28;20208;-84
2021/01/23 04:18:23;;;;;;;0.50;0.50;;;0.30;99.90;;;;;;5080428;28;20199;-84
2021/01/23 04:20:49;;;;;;;0.57;0.57;;;0.20;99.90;;;;;;5080492;28;20780;-84
2021/01/23 04:23:15;;;;;;;0.50;0.50;;;0.30;99.90;;;;;;5080791;28;20224;-84
2021/01/23 04:25:41;;;;;;;0.52;0.52;;;0.30;99.90;;;;;;5081603;28;20210;-84
2021/01/23 04:28:07;;;;;;;0.60;0.60;;;0.40;99.90;;;;;;5079632;28;20238;-84
2021/01/23 04:30:35;;;;;;;0.60;0.60;;;0.40;99.90;;;;;;5080710;28;20570;-84
2021/01/23 04:33:01;;;;;;;0.50;0.50;;;0.30;99.90;;;;;;5080504;28;20203;-84
2021/01/23 04:35:27;;;;;;;0.60;0.60;;;0.30;99.90;;;;;;5078798;28;20200;-84
2021/01/23 04:37:53;;;;;;;0.60;0.60;;;0.30;99.90;;;;;;5079947;28;20235;-84
2021/01/23 04:40:19;;;;;;;0.50;0.50;;;1.10;99.90;;;;;;5079878;28;20199;-84
2021/01/23 04:42:45;;;;;;;0.60;0.60;;;0.30;99.90;;;;;;5079700;28;20208;-84
2021/01/23 04:45:13;;;;;;;0.57;0.57;;;0.40;99.90;;;;;;5079535;28;20729;-84
2021/01/23 04:47:41;;;;;;;0.60;0.60;;;0.30;99.90;;;;;;5078931;28;20219;-84
2021/01/23 04:50:10;;;;;;;0.50;0.50;;;0.20;99.90;;;;;;5079924;28;20207;-84
2021/01/23 04:52:38;;;;;;;0.60;0.60;;;0.10;99.90;;;;;;5074516;28;20242;-83
2021/01/23 04:55:06;;;;;;;0.50;0.50;;;0.10;99.90;;;;;;5072868;28;20204;-83
2021/01/23 04:57:32;;;;;;;0.60;0.60;;;0.10;99.90;;;;;;5072181;28;20261;-83
2021/01/23 04:59:58;;;;;;;0.60;0.60;;;0.10;99.90;;;;;;5075876;28;20211;-83
2021/01/23 05:02:25;;;;;;;0.60;0.60;;;0.10;99.90;;;;;;5088481;28;20195;-84
2021/01/23 05:04:55;;;;;;;0.60;0.60;;;0.10;99.90;;;;;;5086883;28;20211;-84
2021/01/23 05:07:29;;;;;;;0.50;0.50;;;0.10;99.90;;;;;;5086962;28;20227;-84
2021/01/23 05:09:56;;;;;;;0.60;0.60;;;0.10;99.90;;;;;;5084208;28;20206;-83
2021/01/23 05:12:39;;;;;;;0.60;0.60;;;0.10;99.90;;;;;;5073918;28;20226;-83
2021/01/23 05:15:08;;;;;;;0.52;0.52;;;0.10;99.90;;;;;;5074137;28;20204;-83
2021/01/23 05:17:49;;;;;;;0.52;0.52;;;0.10;99.90;;;;;;5074013;28;20300;-83
2021/01/23 05:20:36;;;;;;;0.60;0.60;;;0.10;99.90;;;;;;5073270;28;20360;-83
2021/01/23 05:23:04;;;;;;;0.50;0.50;;;0.10;99.90;;;;;;5076415;28;20219;-84
2021/01/23 05:25:31;;;;;;;0.57;0.57;;;0.10;99.90;;;;;;5078508;28;20207;-84
2021/01/23 05:28:00;;;;;;;0.60;0.60;;;0.10;99.90;;;;;;5079760;28;20682;-84
2021/01/23 05:30:39;;;;;;;0.50;0.50;;;0.10;99.90;;;;;;5078803;28;20204;-84
2021/01/23 05:33:08;;;;;;;0.50;0.50;;;0.00;99.90;;;;;;5078964;28;20210;-83
2021/01/23 05:35:36;;;;;;;0.60;0.60;;;0.10;99.90;;;;;;5078040;28;20257;-84
2021/01/23 05:38:24;;;;;;;0.60;0.60;;;0.10;99.90;;;;;;5078989;28;20239;-84
2021/01/23 05:40:52;;;;;;;0.60;0.60;;;0.10;99.90;;;;;;5076550;28;20207;-84
2021/01/23 05:43:35;;;;;;;0.55;0.55;;;0.00;99.90;;;;;;5073210;28;20222;-84
2021/01/23 05:46:04;;;;;;;0.50;0.50;;;0.10;99.90;;;;;;5073112;28;20196;-84
2021/01/23 05:48:31;;;;;;;0.60;0.60;;;0.10;99.90;;;;;;5073524;28;20224;-84
2021/01/23 05:50:58;;;;;;;0.60;0.60;;;0.10;99.90;;;;;;5073297;28;20215;-85
2021/01/23 05:53:24;;;;;;;0.60;0.60;;;0.10;99.90;;;;;;5071415;28;20234;-84
2021/01/23 05:55:50;;;;;;;0.60;0.60;;;0.10;99.90;;;;;;5071220;28;20572;-84
2021/01/23 05:58:17;;;;;;;0.60;0.60;;;0.10;99.90;;;;;;5070756;28;20219;-84
2021/01/23 06:00:43;;;;;;;0.50;0.50;;;0.10;99.90;;;;;;5070799;28;20265;-84
2021/01/23 06:03:11;;;;;;;0.60;0.60;;;0.10;99.90;;;;;;5071206;28;20229;-85
2021/01/23 06:05:37;;;;;;;0.50;0.50;;;0.10;99.90;;;;;;5071163;28;20230;-84
2021/01/23 06:08:05;;;;;;;0.60;0.60;;;0.20;99.90;;;;;;5070773;28;20254;-84
2021/01/23 06:10:36;;;;;;;0.60;0.60;;;0.20;99.90;;;;;;5070990;28;20561;-86
2021/01/23 06:13:03;;;;;;;0.50;0.50;;;0.20;99.90;;;;;;5070265;28;20823;-84
2021/01/23 06:15:37;;;;;;;0.50;0.50;;;0.20;99.90;;;;;;5070171;28;20204;-84
2021/01/23 06:18:05;;;;;;;0.60;0.60;;;0.30;99.90;;;;;;5069790;28;20557;-84
2021/01/23 06:20:49;;;;;;;0.50;0.50;;;0.30;99.90;;;;;;5069595;28;20200;-84
2021/01/23 06:23:17;;;;;;;0.50;0.50;;;0.30;99.90;;;;;;5069664;28;20424;-85
2021/01/23 06:26:00;;;;;;;0.50;0.50;;;0.20;99.90;;;;;;5069191;28;20737;-84
2021/01/23 06:28:49;;;;;;;0.50;0.50;;;0.20;99.90;;;;;;5068878;28;20223;-85
2021/01/23 06:31:35;;;;;;;0.50;0.50;;;0.20;99.90;;;;;;5068046;28;20207;-85
2021/01/23 06:34:21;;;;;;;0.52;0.52;;;0.20;99.90;;;;;;5068069;28;20196;-85
2021/01/23 06:36:48;;;;;;;0.50;0.50;;;0.20;99.90;;;;;;5068121;28;20199;-85
2021/01/23 06:39:15;;;;;;;0.50;0.50;;;0.10;99.90;;;;;;5068015;28;20281;-85
2021/01/23 06:41:41;;;;;;;0.50;0.50;;;0.10;99.90;;;;;;5068027;28;20294;-85
2021/01/23 06:44:17;;;;;;;0.50;0.50;;;0.20;99.90;;;;;;5068264;28;20208;-85
2021/01/23 06:46:55;;;;;;;0.60;0.60;;;0.20;99.90;;;;;;5067927;28;20373;-85
2021/01/23 06:49:21;;;;;;;0.60;0.60;;;0.10;99.90;;;;;;5068344;28;20286;-84
2021/01/23 06:51:48;;;;;;;0.52;0.52;;;0.20;99.90;;;;;;5072574;28;20204;-84
2021/01/23 06:54:16;;;;;;;0.60;0.60;;;0.20;99.90;;;;;;5075442;28;20568;-85
2021/01/23 06:56:43;;;;;;;0.60;0.60;;;0.20;99.90;;;;;;5075186;28;20204;-84
2021/01/23 06:59:21;;;;;;;0.60;0.60;;;0.20;99.90;;;;;;5080516;28;20203;-84
2021/01/23 07:01:58;;;;;;;0.60;0.60;;;0.20;99.90;;;;;;5080211;28;20204;-84
2021/01/23 07:04:24;;;;;;;0.60;0.60;;;0.20;99.90;;;;;;5080692;28;20206;-84
2021/01/23 07:06:52;;;;;;;0.60;0.60;;;0.30;99.90;;;;;;5081159;28;20655;-84
2021/01/23 07:09:18;;;;;;;0.60;0.60;;;0.90;99.90;;;;;;5085944;28;20210;-84
2021/01/23 07:11:44;;;;;;;0.60;0.60;;;0.20;99.90;;;;;;5088196;28;20199;-83
2021/01/23 07:14:11;;;;;;;0.60;0.60;;;0.20;99.90;;;;;;5084973;28;20589;-84
2021/01/23 07:16:38;;;;;;;0.60;0.60;;;0.20;99.90;;;;;;5074774;28;20210;-84
2021/01/23 07:19:06;;;;;;;0.50;0.50;;;0.20;99.90;;;;;;5076055;28;20256;-84
2021/01/23 07:21:33;;;;;;;0.50;0.50;;;0.20;99.90;;;;;;5074661;28;20203;-84
2021/01/23 07:24:01;;;;;;;0.50;0.50;;;0.20;99.90;;;;;;5074563;28;20228;-85
2021/01/23 07:26:28;;;;;;;0.60;0.60;;;0.20;99.90;;;;;;5074190;28;20211;-84
2021/01/23 07:28:56;;;;;;;0.60;0.60;;;0.10;99.90;;;;;;5074690;28;20206;-84
2021/01/23 07:31:23;;;;;;;0.50;0.50;;;0.20;99.90;;;;;;5075022;28;20570;-84
2021/01/23 07:33:50;;;;;;;0.60;0.60;;;0.10;99.90;;;;;;5075168;28;20559;-84
2021/01/23 07:36:33;;;;;;;0.60;0.60;;;0.10;99.90;;;;;;5074241;28;20204;-85
2021/01/23 07:39:03;;;;;;;0.60;0.60;;;0.20;99.90;;;;;;5071031;28;20266;-85
2021/01/23 07:41:30;;;;;;;0.60;0.60;;;0.10;99.90;;;;;;5071123;28;20698;-85
2021/01/23 07:43:58;;;;;;;0.50;0.50;;;0.10;99.90;;;;;;5071193;28;20322;-85
2021/01/23 07:46:24;;;;;;;0.50;0.50;;;0.20;99.90;;;;;;5070982;28;20204;-85
2021/01/23 07:48:51;;;;;;;0.60;0.60;;;0.20;99.90;;;;;;5072347;28;20231;-84
2021/01/23 07:51:23;;;;;;;0.50;0.50;;;0.20;99.90;;;;;;5074714;28;20287;-85
2021/01/23 07:54:10;;;;;;;0.50;0.50;;;0.20;99.90;;;;;;5070763;28;20777;-85
2021/01/23 07:56:37;;;;;;;0.50;0.50;;;0.30;99.90;;;;;;5070728;28;20214;-84
2021/01/23 07:59:04;;;;;;;0.60;0.60;;;0.30;99.90;;;;;;5070815;28;20211;-85
2021/01/23 08:01:30;;;;;;;0.60;0.60;;;0.40;99.90;;;;;;5070718;28;20612;-85
2021/01/23 08:03:56;;;;;;;0.52;0.52;;;0.40;99.90;;;;;;5069313;28;20225;-85
2021/01/23 08:06:26;;;;;;;0.50;0.50;;;0.50;99.90;;;;;;5070683;28;20259;-85
2021/01/23 08:08:52;;;;;;;0.60;0.60;;;0.50;99.90;;;;;;5070548;28;20463;-85
2021/01/23 08:11:41;;;;;;;0.50;0.50;;;0.40;99.90;;;;;;5070878;28;20261;-85
2021/01/23 08:14:09;;;;;;;0.60;0.60;;;0.40;99.90;;;;;;5070531;28;20311;-86
2021/01/23 08:16:35;;;;;;;0.60;0.60;;;0.40;99.90;;;;;;5070395;28;20225;-82
2021/01/23 08:19:08;;;;;;;0.50;0.50;;;0.50;99.90;;;;;;5070294;28;20203;-86
2021/01/23 08:21:34;;;;;;;0.60;0.60;;;0.50;99.90;;;;;;5070547;28;20207;-86
2021/01/23 08:24:01;;;;;;;0.60;0.60;;;0.60;99.90;;;;;;5070328;28;20230;-86
2021/01/23 08:26:39;;;;;;;0.50;0.50;;;0.70;99.90;;;;;;5070105;28;20199;-85
2021/01/23 08:29:05;;;;;;;0.60;0.60;;;0.70;99.90;;;;;;5071762;28;20206;-84
2021/01/23 08:31:31;;;;;;;0.60;0.60;;;0.80;99.90;;;;;;5070306;28;20260;-85
2021/01/23 08:33:58;;;;;;;0.50;0.50;;;0.90;99.90;;;;;;5070274;28;20269;-85
2021/01/23 08:36:26;;;;;;;0.57;0.57;;;0.90;99.90;;;;;;5070206;28;20200;-85
2021/01/23 08:38:56;;;;;;;0.50;0.50;;;0.90;99.90;;;;;;5069815;28;20223;-86
2021/01/23 08:41:22;;;;;;;0.60;0.60;;;1.00;99.90;;;;;;5070705;28;20204;-83
2021/01/23 08:43:49;;;;;;;0.60;0.60;;;1.00;99.90;;;;;;5070600;28;20219;-84
2021/01/23 08:46:15;;;;;;;0.50;0.50;;;1.00;99.90;;;;;;5082420;28;20214;-84
2021/01/23 08:48:41;;;;;;;0.50;0.50;;;1.10;99.90;;;;;;5088846;28;20219;-84
2021/01/23 08:51:07;;;;;;;0.50;0.50;;;1.10;99.90;;;;;;5090875;28;20429;-85
2021/01/23 08:53:34;;;;;;;0.50;0.50;;;1.10;99.90;;;;;;5090873;28;20196;-85
2021/01/23 08:56:00;;;;;;;0.50;0.50;;;1.10;99.90;;;;;;5071719;28;20623;-85
2021/01/23 08:58:26;;;;;;;0.50;0.50;;;1.10;99.90;;;;;;5072689;28;20203;-85
2021/01/23 09:00:53;;;;;;;0.50;0.50;;;1.10;99.90;;;;;;5072185;28;20211;-84
2021/01/23 09:03:21;;;;;;;0.60;0.60;;;1.20;99.90;;;;;;5075117;28;20195;-85
2021/01/23 09:05:47;;;;;;;0.50;0.50;;;1.20;99.90;;;;;;5071916;28;20251;-86
2021/01/23 09:08:13;;;;;;;0.60;0.60;;;1.20;99.90;;;;;;5072914;28;20605;-84
2021/01/23 09:10:39;;;;;;;0.60;0.60;;;1.70;99.90;;;;;;5074472;28;20203;-86
2021/01/23 09:13:06;;;;;;;0.50;0.50;;;1.30;99.90;;;;;;5078054;28;20208;-87
2021/01/23 09:15:32;;;;;;;0.50;0.50;;;1.30;99.90;;;;;;5069274;28;20290;-87
2021/01/23 09:17:59;;;;;;;0.50;0.50;;;1.40;99.90;;;;;;5071163;28;20204;-87
2021/01/23 09:20:25;;;;;;;0.50;0.50;;;1.40;99.90;;;;;;5070258;28;20582;-87
2021/01/23 09:22:52;;;;;;;0.55;0.55;;;1.50;99.90;;;;;;5070792;28;20223;-87
2021/01/23 09:25:19;;;;;;;0.50;0.50;;;1.50;99.90;;;;;;5069655;28;20601;-87
2021/01/23 09:27:45;;;;;;;0.60;0.60;;;2.20;99.90;;;;;;5068310;28;20212;-86
2021/01/23 09:30:14;;;;;;;0.50;0.50;;;1.60;99.90;;;;;;5069152;28;20674;-87
2021/01/23 09:32:40;;;;;;;0.60;0.60;;;1.60;99.90;;;;;;5069488;28;20227;-87
2021/01/23 09:35:08;;;;;;;0.60;0.60;;;1.60;99.90;;;;;;5069953;28;20203;-87
2021/01/23 09:37:34;;;;;;;0.50;0.50;;;1.60;99.90;;;;;;5069500;28;20292;-88
2021/01/23 09:40:01;;;;;;;0.50;0.50;;;1.70;99.90;;;;;;5069420;28;20199;-87
2021/01/23 09:42:27;;;;;;;0.60;0.60;;;1.70;99.90;;;;;;5069468;28;20200;-87
2021/01/23 09:44:53;;;;;;;0.50;0.50;;;1.80;99.90;;;;;;5069009;28;20269;-87
2021/01/23 09:47:19;;;;;;;0.60;0.60;;;1.80;99.90;;;;;;5068875;28;20226;-87
2021/01/23 09:49:46;;;;;;;0.50;0.50;;;1.90;99.90;;;;;;5069143;28;20210;-88
2021/01/23 09:52:16;;;;;;;0.50;0.50;;;1.90;99.90;;;;;;5070431;28;20231;-88
2021/01/23 09:54:45;;;;;;;0.50;0.50;;;2.00;99.90;;;;;;5068875;28;20204;-87
2021/01/23 09:57:15;;;;;;;0.50;0.50;;;2.00;99.90;;;;;;5068795;28;20244;-87
2021/01/23 09:59:44;;;;;;;0.50;0.50;;;2.00;99.90;;;;;;5068914;28;20268;-87
2021/01/23 10:02:10;;;;;;;0.50;0.50;;;2.00;99.90;;;;;;5067221;28;20558;-88
2021/01/23 10:04:36;;;;;;;0.50;0.50;;;2.00;99.90;;;;;;5069093;28;20215;-88
2021/01/23 10:07:05;;;;;;;0.57;0.57;;;2.00;99.90;;;;;;5081283;28;20542;-88
2021/01/23 10:09:33;;;;;;;0.50;0.50;;;2.10;99.90;;;;;;5089500;28;20206;-88
2021/01/23 10:12:15;;;;;;;;;;;;;;;;;;;;;
2021/01/23 10:14:41;;;;;;;0.50;0.50;;;2.10;99.90;;;;;;5089137;28;20202;-86
2021/01/23 10:17:07;;;;;;;0.50;0.50;;;2.10;99.90;;;;;;5089059;28;20203;-88
2021/01/23 10:19:33;;;;;;;0.50;0.50;;;2.20;99.90;;;;;;5089087;28;20210;-87
2021/01/23 10:22:00;;;;;;;0.50;0.50;;;2.20;99.90;;;;;;5088933;28;20264;-88
2021/01/23 10:24:26;;;;;;;0.60;0.60;;;2.20;99.90;;;;;;5089427;28;20227;-87
2021/01/23 10:26:53;;;;;;;0.50;0.50;;;2.30;99.90;;;;;;5089427;28;20210;-87
2021/01/23 10:29:20;;;;;;;0.50;0.50;;;2.40;99.90;;;;;;5091006;28;20221;-88
2021/01/23 10:31:48;;;;;;;0.50;0.50;;;2.40;99.90;;;;;;5094224;28;20202;-88
2021/01/23 10:34:28;;;;;;;0.50;0.50;;;2.40;99.90;;;;;;5069339;28;20210;-86
2021/01/23 10:36:54;;;;;;;0.60;0.60;;;2.50;99.90;;;;;;5066799;28;20200;-87
2021/01/23 10:39:21;;;;;;;0.50;0.50;;;2.50;99.90;;;;;;5071014;28;20713;-88
2021/01/23 10:41:47;;;;;;;0.50;0.50;;;2.50;99.90;;;;;;5077990;28;20238;-82
2021/01/23 10:44:14;;;;;;;0.50;0.50;;;2.60;99.90;;;;;;5079468;28;20199;-86
2021/01/23 10:46:40;;;;;;;0.50;0.50;;;2.60;99.90;;;;;;5080769;28;20195;-87
2021/01/23 10:49:07;;;;;;;0.50;0.50;;;2.60;99.90;;;;;;5067581;28;20634;-87
2021/01/23 10:51:33;;;;;;;0.50;0.50;;;2.60;99.90;;;;;;5069396;28;20539;-87
2021/01/23 10:53:59;;;;;;;0.60;0.60;;;2.60;99.90;;;;;;5067422;28;20214;-87
2021/01/23 10:56:27;;;;;;;0.50;0.50;;;2.70;99.90;;;;;;5040499;28;20233;-87
2021/01/23 10:58:54;;;;;;;0.60;0.60;;;2.80;99.90;;;;;;5063270;28;20602;-87
2021/01/23 11:01:23;;;;;;;0.52;0.52;;;2.80;99.90;;;;;;5067079;28;20576;-87
2021/01/23 11:03:52;;;;;;;0.50;0.50;;;2.90;99.90;;;;;;5067197;28;20211;-88
2021/01/23 11:06:18;;;;;;;0.60;0.60;;;2.90;99.90;;;;;;5073697;28;20204;-86
2021/01/23 11:08:44;;;;;;;0.50;0.50;;;3.00;99.90;;;;;;5067025;28;20223;-87
2021/01/23 11:11:10;;;;;;;0.50;0.50;;;3.00;99.90;;;;;;5076225;28;20700;-88
2021/01/23 11:13:38;;;;;;;0.50;0.50;;;3.10;99.90;;;;;;5075242;28;20396;-87
2021/01/23 11:16:05;;;;;;;0.50;0.50;;;3.20;99.90;;;;;;5067874;28;20204;-87
2021/01/23 11:18:32;;;;;;;0.50;0.50;;;3.20;99.90;;;;;;5059241;28;20547;-87
2021/01/23 11:20:58;;;;;;;0.50;0.50;;;3.30;99.90;;;;;;5069138;28;20234;-88
2021/01/23 11:23:26;;;;;;;0.50;0.50;;;3.30;99.90;;;;;;5066834;28;20223;-87
2021/01/23 11:25:53;;;;;;;0.60;0.60;;;3.30;99.90;;;;;;5065670;28;20232;-88
2021/01/23 11:28:19;;;;;;;0.60;0.60;;;3.40;99.90;;;;;;5068925;28;20400;-88
2021/01/23 11:30:45;;;;;;;0.52;0.52;;;3.50;99.90;;;;;;5067096;28;20199;-88
2021/01/23 11:33:11;;;;;;;0.60;0.60;;;3.60;99.90;;;;;;5066259;28;20208;-88
2021/01/23 11:35:38;;;;;;;0.60;0.60;;;3.80;99.90;;;;;;5067014;28;20204;-88
2021/01/23 11:38:05;;;;;;;0.60;0.60;;;4.00;99.90;;;;;;5070968;28;20231;-88
2021/01/23 11:40:31;;;;;;;0.50;0.50;;;4.20;99.90;;;;;;5068004;28;20200;-87
2021/01/23 11:42:58;;;;;;;0.60;0.60;;;4.40;99.90;;;;;;5070504;28;20203;-88
2021/01/23 11:45:24;;;;;;;0.50;0.50;;;4.50;99.90;;;;;;5069771;28;20215;-87
2021/01/23 11:47:50;;;;;;;0.50;0.50;;;4.60;99.90;;;;;;5070054;28;20223;-87
2021/01/23 11:50:19;;;;;;;0.60;0.60;;;4.80;99.90;;;;;;5068301;28;20200;-87
2021/01/23 11:52:46;;;;;;;0.60;0.60;;;5.00;99.90;;;;;;5069549;28;20269;-87
2021/01/23 11:55:12;;;;;;;0.60;0.60;;;5.00;99.90;;;;;;5070811;28;20208;-87
2021/01/23 11:57:39;;;;;;;0.50;0.50;;;5.10;99.90;;;;;;5071337;28;20558;-87
2021/01/23 12:00:07;;;;;;;0.60;0.60;;;5.20;99.90;;;;;;5070953;28;20349;-87
2021/01/23 12:02:33;;;;;;;0.60;0.60;;;5.40;99.90;;;;;;5071188;28;20199;-87
2021/01/23 12:04:59;;;;;;;0.60;0.60;;;5.50;99.90;;;;;;5071113;28;20203;-87
2021/01/23 12:07:28;;;;;;;0.60;0.60;;;5.60;99.90;;;;;;5071906;28;20273;-85
2021/01/23 12:09:55;;;;;;;0.50;0.50;;;6.00;99.90;;;;;;5071171;28;20211;-87
2021/01/23 12:12:21;;;;;;;0.50;0.50;;;6.20;99.90;;;;;;5069618;28;20685;-87
2021/01/23 12:14:47;;;;;;;0.60;0.60;;;6.40;99.90;;;;;;5070551;28;20206;-87
2021/01/23 12:17:13;;;;;;;0.60;0.60;;;6.50;99.90;;;;;;5070388;28;20214;-87
2021/01/23 12:19:41;;;;;;;0.50;0.50;;;6.70;99.90;;;;;;5067365;28;20208;-87
2021/01/23 12:22:08;;;;;;;0.60;0.60;;;6.70;99.90;;;;;;5070174;28;20204;-87
2021/01/23 12:24:34;;;;;;;0.60;0.60;;;6.70;99.90;;;;;;5070739;28;20686;-87
2021/01/23 12:27:01;;;;;;;0.60;0.60;;;6.60;99.90;;;;;;5069488;28;20265;-86
2021/01/23 12:29:29;;;;;;;0.60;0.60;;;6.70;99.90;;;;;;5071016;28;20203;-86
2021/01/23 12:31:56;;;;;;;0.60;0.60;;;6.80;99.90;;;;;;5070862;28;20234;-86
2021/01/23 12:34:24;;;;;;;0.50;0.50;;;6.70;99.90;;;;;;5070792;28;20247;-86
2021/01/23 12:36:54;;;;;;;0.50;0.50;;;6.50;99.90;;;;;;5071731;28;20207;-86
2021/01/23 12:39:21;;;;;;;0.50;0.50;;;6.60;99.90;;;;;;5069503;28;20232;-86
2021/01/23 12:41:48;;;;;;;0.60;0.60;;;6.70;99.90;;;;;;5069571;28;20653;-87
2021/01/23 12:44:14;;;;;;;0.60;0.60;;;6.80;99.90;;;;;;5070193;28;20254;-87
2021/01/23 12:46:40;;;;;;;0.50;0.50;;;6.80;99.90;;;;;;5069449;28;20207;-87
2021/01/23 12:49:09;;;;;;;0.57;0.57;;;6.70;99.90;;;;;;5069583;28;20232;-86
2021/01/23 12:51:47;;;;;;;0.60;0.60;;;6.60;99.90;;;;;;5070027;28;20206;-86
2021/01/23 12:54:16;;;;;;;0.60;0.60;;;6.60;99.90;;;;;;5069852;28;20207;-87
2021/01/23 12:56:44;;;;;;;0.60;0.60;;;6.70;99.90;;;;;;5068887;28;20408;-87
2021/01/23 12:59:13;;;;;;;0.60;0.60;;;6.50;99.90;;;;;;5069698;28;20744;-86
2021/01/23 13:01:40;;;;;;;0.60;0.60;;;6.30;99.90;;;;;;5069892;28;20548;-86
2021/01/23 13:04:07;;;;;;;0.60;0.60;;;6.20;99.90;;;;;;5070037;28;20290;-86